Página principal
METAR-TAF:

METAR-TAF

Aeroportos :

Oral, Cazaquistão

latitude: 51-15N, longitude: 051-17E, altura: 36 m

Observação actual do tempo

O boletim foi feito há 21 minutos, às 17:00 UTC
Vento 10 kt de es-nordeste
Temperatura 22°C
Humidade 31%
Pressão 1013 hPa
Visibilidade 10 km ou mais
sem nuvens abaixo de 1500 metros e sem cumulonimbus

METAR: UARR 231700Z 07005MPS CAVOK 22/04 Q1013 R04/CLRD70 NOSIG RMK QFE756/1009

Hora: 22:21 (17:21 UTC)

Previsão

O boletim foi feito há 3 horas e 21 minutos, às 14:00 UTC
Previsão válida de 23 às 15 UTC a 23 às 24 UTC
Vento 14 kt de este
Visibilidade 10 km ou mais
Nuvens dispersasa uma altura de 3300 ft
Temporariamente
de 23 às 15 UTC a 23 às 21 UTC
Vento 14 kt de es-sudeste com rajadas de 23 kt
Nuvens dispersasa uma altura de 5000 ft, Cumulonimbus.

TAF: UARR 231400Z 2315/2324 09007MPS 9999 SCT033 TEMPO 2315/2321 11007G12MPS SCT050CB

Observações e previsões do tempo de mais de 4000 aeroportos (mensagens METAR e TAF).

As estações disponíveis são os pontos amarelos e vermelhos sobre o mapa.

Mova o rato sobre o mapa para ver o nome da estação.

Depois clique no ponto para visualizar as observações e previsões meteorológicas.

Para alterar o mapa : clique nos botões verdes com uma cruz preta para aumentar o zoom; no botão verde com uma pitada de zoom; ou nas setas verdes para mapas adjacentes.


METAR-TAF: